createdAt,value
2022-11-17T00:00:22.975Z,94
2022-11-17T00:01:23.026Z,93
2022-11-17T00:02:23.058Z,94
2022-11-17T00:03:22.989Z,94
2022-11-17T00:04:22.978Z,93
2022-11-17T00:05:22.986Z,93
2022-11-17T00:06:23.001Z,93
2022-11-17T00:07:23.034Z,93
2022-11-17T00:08:23.012Z,93
2022-11-17T00:09:22.993Z,93
2022-11-17T00:10:23.000Z,92
2022-11-17T00:11:23.001Z,92
2022-11-17T00:12:23.255Z,92
2022-11-17T00:13:22.998Z,92
2022-11-17T00:14:22.993Z,92
2022-11-17T00:15:22.990Z,92
2022-11-17T00:16:23.028Z,91
2022-11-17T00:17:23.021Z,91
2022-11-17T00:18:23.022Z,91
2022-11-17T00:19:22.993Z,91
2022-11-17T00:20:22.991Z,91
2022-11-17T00:21:22.997Z,91
2022-11-17T00:22:22.994Z,91
2022-11-17T00:23:22.996Z,91
2022-11-17T00:24:23.118Z,91
2022-11-17T00:25:23.007Z,92
2022-11-17T00:26:22.997Z,92
2022-11-17T00:27:23.005Z,92
2022-11-17T00:28:23.002Z,93
2022-11-17T00:29:22.993Z,93
2022-11-17T00:30:22.995Z,93
2022-11-17T00:31:23.005Z,93
2022-11-17T00:32:22.996Z,93
2022-11-17T00:33:22.993Z,93
2022-11-17T00:34:23.008Z,93
2022-11-17T00:35:23.018Z,93
2022-11-17T00:36:23.010Z,93
2022-11-17T00:37:22.998Z,94
2022-11-17T00:38:22.997Z,93
2022-11-17T00:39:23.004Z,94
2022-11-17T00:40:23.109Z,94
2022-11-17T00:41:23.012Z,94
2022-11-17T00:42:23.003Z,94
2022-11-17T00:43:23.000Z,94
2022-11-17T00:44:22.984Z,94
2022-11-17T00:45:23.006Z,94
2022-11-17T00:46:23.008Z,94
2022-11-17T00:47:23.001Z,94
2022-11-17T00:48:23.000Z,94
2022-11-17T00:49:22.990Z,94
2022-11-17T00:50:23.139Z,95
2022-11-17T00:51:23.008Z,95
2022-11-17T00:52:23.003Z,95
2022-11-17T00:53:22.997Z,95
2022-11-17T00:54:22.993Z,95
2022-11-17T00:55:23.110Z,95
2022-11-17T00:56:23.137Z,94
2022-11-17T00:57:23.003Z,93
2022-11-17T00:58:23.007Z,93
2022-11-17T00:59:23.007Z,93
2022-11-17T01:00:22.997Z,93
2022-11-17T01:01:23.082Z,93
2022-11-17T01:02:23.001Z,93
2022-11-17T01:03:23.003Z,93
2022-11-17T01:04:23.000Z,93
2022-11-17T01:05:23.018Z,93
2022-11-17T01:06:23.012Z,93
2022-11-17T01:07:23.060Z,93
2022-11-17T01:08:23.003Z,93
2022-11-17T01:09:23.038Z,93
2022-11-17T01:10:23.013Z,94
2022-11-17T01:11:23.016Z,95
2022-11-17T01:12:23.144Z,94
2022-11-17T01:13:23.007Z,94
2022-11-17T01:14:23.005Z,94
2022-11-17T01:15:23.008Z,94
2022-11-17T01:16:23.024Z,96
2022-11-17T01:17:23.018Z,96
2022-11-17T01:18:23.001Z,96
2022-11-17T01:19:23.017Z,96
2022-11-17T01:20:22.997Z,96
2022-11-17T01:21:23.033Z,95
2022-11-17T01:22:23.029Z,95
2022-11-17T01:23:22.999Z,95
2022-11-17T01:24:23.004Z,95
2022-11-17T01:25:23.012Z,95
2022-11-17T01:26:23.021Z,95
2022-11-17T01:27:23.014Z,94
2022-11-17T01:28:23.115Z,94
2022-11-17T01:29:23.017Z,94
2022-11-17T01:30:23.002Z,94
2022-11-17T01:31:23.029Z,93
2022-11-17T01:32:23.006Z,93
2022-11-17T01:33:23.010Z,93
2022-11-17T01:34:23.013Z,93
2022-11-17T01:35:23.019Z,93
2022-11-17T01:36:23.035Z,93
2022-11-17T01:37:23.017Z,93
2022-11-17T01:38:23.022Z,93
2022-11-17T01:39:23.031Z,93
2022-11-17T01:40:23.031Z,93
2022-11-17T01:41:23.027Z,93
2022-11-17T01:42:23.011Z,94
2022-11-17T01:43:23.018Z,94
2022-11-17T01:44:23.187Z,94
2022-11-17T01:45:23.025Z,94
2022-11-17T01:46:23.033Z,94
2022-11-17T01:47:23.035Z,94
2022-11-17T01:48:23.018Z,94
2022-11-17T01:49:23.026Z,94
2022-11-17T01:50:23.021Z,95
2022-11-17T01:51:23.044Z,95
2022-11-17T01:52:23.017Z,95
2022-11-17T01:53:23.024Z,95
2022-11-17T01:54:23.172Z,95
2022-11-17T01:55:23.034Z,95
2022-11-17T01:56:23.037Z,95
2022-11-17T01:57:23.022Z,95
2022-11-17T01:58:23.034Z,95
2022-11-17T01:59:23.033Z,95
2022-11-17T02:00:23.057Z,95
2022-11-17T02:01:23.082Z,94
2022-11-17T02:02:23.033Z,93
2022-11-17T02:03:23.028Z,93
2022-11-17T02:04:23.021Z,93
2022-11-17T02:05:23.027Z,92
2022-11-17T02:06:23.041Z,91
2022-11-17T02:07:23.147Z,90
2022-11-17T02:08:23.039Z,89
2022-11-17T02:09:23.034Z,89
2022-11-17T02:10:23.035Z,89
2022-11-17T02:11:23.034Z,89
2022-11-17T02:12:23.025Z,89
2022-11-17T02:13:23.041Z,88
2022-11-17T02:14:23.020Z,88
2022-11-17T02:15:23.034Z,88
2022-11-17T02:16:23.148Z,88
2022-11-17T02:17:23.023Z,88
2022-11-17T02:18:23.028Z,88
2022-11-17T02:19:23.020Z,88
2022-11-17T02:20:23.026Z,88
2022-11-17T02:21:23.055Z,88
2022-11-17T02:22:23.026Z,88
2022-11-17T02:23:23.026Z,88
2022-11-17T02:24:23.025Z,88
2022-11-17T02:25:26.933Z,88
2022-11-17T02:26:23.034Z,89
2022-11-17T02:27:23.039Z,89
2022-11-17T02:28:23.025Z,89
2022-11-17T02:29:23.039Z,88
2022-11-17T02:30:23.040Z,88
2022-11-17T02:31:23.033Z,88
2022-11-17T02:32:23.141Z,88
2022-11-17T02:33:23.028Z,89
2022-11-17T02:34:23.025Z,89
2022-11-17T02:35:23.034Z,88
2022-11-17T02:36:23.029Z,88
2022-11-17T02:37:23.027Z,88
2022-11-17T02:38:23.037Z,87
2022-11-17T02:39:23.025Z,88
2022-11-17T02:40:23.025Z,88
2022-11-17T02:41:23.045Z,88
2022-11-17T02:42:23.021Z,88
2022-11-17T02:43:23.030Z,88
2022-11-17T02:44:23.025Z,88
2022-11-17T02:45:23.036Z,88
2022-11-17T02:46:23.027Z,88
2022-11-17T02:47:23.029Z,87
2022-11-17T02:48:23.044Z,87
2022-11-17T02:49:23.052Z,87
2022-11-17T02:50:27.982Z,87
2022-11-17T02:51:23.036Z,87
2022-11-17T02:52:23.026Z,87
2022-11-17T02:53:23.024Z,87
2022-11-17T02:54:23.029Z,88
2022-11-17T02:55:23.026Z,87
2022-11-17T02:56:23.035Z,87
2022-11-17T02:57:23.033Z,87
2022-11-17T02:58:23.052Z,87
2022-11-17T02:59:23.024Z,88
2022-11-17T03:00:23.026Z,88
2022-11-17T03:01:23.125Z,90
2022-11-17T03:02:23.037Z,90
2022-11-17T03:03:23.040Z,90
2022-11-17T03:04:23.145Z,90
2022-11-17T03:05:23.024Z,90
2022-11-17T03:06:23.041Z,90
2022-11-17T03:07:23.122Z,88
2022-11-17T03:08:23.034Z,88
2022-11-17T03:09:23.046Z,88
2022-11-17T03:10:23.033Z,88
2022-11-17T03:11:23.046Z,88
2022-11-17T03:12:23.053Z,87
2022-11-17T03:13:23.045Z,88
2022-11-17T03:14:23.037Z,87
2022-11-17T03:15:23.047Z,88
2022-11-17T03:16:23.057Z,87
2022-11-17T03:17:23.044Z,87
2022-11-17T03:18:23.029Z,88
2022-11-17T03:19:23.043Z,88
2022-11-17T03:20:23.052Z,88
2022-11-17T03:21:23.050Z,88
2022-11-17T03:22:23.059Z,87
2022-11-17T03:23:23.054Z,87
2022-11-17T03:24:23.053Z,87
2022-11-17T03:25:23.098Z,88
2022-11-17T03:26:23.054Z,88
2022-11-17T03:27:23.040Z,88
2022-11-17T03:28:23.045Z,88
2022-11-17T03:29:23.058Z,88
2022-11-17T03:30:23.046Z,88
2022-11-17T03:31:23.054Z,88
2022-11-17T03:32:23.047Z,89
2022-11-17T03:33:23.058Z,89
2022-11-17T03:34:23.052Z,89
2022-11-17T03:35:23.045Z,88
2022-11-17T03:36:23.172Z,89
2022-11-17T03:37:23.133Z,89
2022-11-17T03:38:23.067Z,89
2022-11-17T03:39:23.061Z,89
2022-11-17T03:40:23.055Z,89
2022-11-17T03:41:23.061Z,89
2022-11-17T03:42:23.142Z,89
2022-11-17T03:43:23.042Z,89
2022-11-17T03:44:23.067Z,88
2022-11-17T03:45:23.061Z,89
2022-11-17T03:46:23.058Z,89
2022-11-17T03:47:23.057Z,89
2022-11-17T03:48:23.059Z,88
2022-11-17T03:49:23.055Z,88
2022-11-17T03:50:23.058Z,88
2022-11-17T03:51:23.070Z,88
2022-11-17T03:52:23.176Z,89
2022-11-17T03:53:23.066Z,88
2022-11-17T03:54:23.056Z,88
2022-11-17T03:55:23.062Z,88
2022-11-17T03:56:23.103Z,88
2022-11-17T03:57:23.060Z,88
2022-11-17T03:58:23.053Z,88
2022-11-17T03:59:23.075Z,88
2022-11-17T04:00:23.079Z,88
2022-11-17T04:01:23.211Z,88
2022-11-17T04:02:23.049Z,88
2022-11-17T04:03:23.075Z,88
2022-11-17T04:04:23.062Z,88
2022-11-17T04:05:23.045Z,88
2022-11-17T04:06:23.061Z,88
2022-11-17T04:07:23.147Z,88
2022-11-17T04:08:23.070Z,88
2022-11-17T04:09:24.694Z,88
2022-11-17T04:10:23.047Z,88
2022-11-17T04:11:23.069Z,88
2022-11-17T04:12:23.066Z,88
2022-11-17T04:13:23.052Z,88
2022-11-17T04:14:23.047Z,88
2022-11-17T04:15:23.058Z,88
2022-11-17T04:16:23.074Z,88
2022-11-17T04:17:23.049Z,88
2022-11-17T04:18:23.054Z,88
2022-11-17T04:19:23.074Z,88
2022-11-17T04:20:23.046Z,88
2022-11-17T04:21:23.077Z,88
2022-11-17T04:22:23.057Z,88
2022-11-17T04:23:23.057Z,89
2022-11-17T04:24:23.175Z,89
2022-11-17T04:25:23.049Z,89
2022-11-17T04:26:23.064Z,88
2022-11-17T04:27:23.048Z,88
2022-11-17T04:28:23.055Z,88
2022-11-17T04:29:23.063Z,88
2022-11-17T04:30:23.045Z,88
2022-11-17T04:31:23.083Z,89
2022-11-17T04:32:23.079Z,89
2022-11-17T04:33:23.050Z,88
2022-11-17T04:34:23.060Z,88
2022-11-17T04:35:23.069Z,88
2022-11-17T04:36:23.278Z,88
2022-11-17T04:37:23.053Z,88
2022-11-17T04:38:23.070Z,88
2022-11-17T04:39:23.079Z,88
2022-11-17T04:40:23.170Z,88
2022-11-17T04:41:23.093Z,87
2022-11-17T04:42:23.073Z,87
2022-11-17T04:43:23.074Z,87
2022-11-17T04:44:23.067Z,87
2022-11-17T04:45:23.062Z,87
2022-11-17T04:46:23.098Z,87
2022-11-17T04:47:23.070Z,87
2022-11-17T04:48:23.073Z,87
2022-11-17T04:49:23.070Z,87
2022-11-17T04:50:23.061Z,87
2022-11-17T04:51:23.092Z,87
2022-11-17T04:52:26.883Z,87
2022-11-17T04:53:23.085Z,87
2022-11-17T04:54:23.071Z,86
2022-11-17T04:55:23.075Z,86
2022-11-17T04:56:23.212Z,86
2022-11-17T04:57:23.073Z,86
2022-11-17T04:58:23.073Z,86
2022-11-17T04:59:23.057Z,87
2022-11-17T05:00:23.058Z,87
2022-11-17T05:01:23.088Z,87
2022-11-17T05:02:23.085Z,88
2022-11-17T05:03:23.076Z,88
2022-11-17T05:04:23.141Z,88
2022-11-17T05:05:23.060Z,89
2022-11-17T05:06:23.085Z,89
2022-11-17T05:07:23.139Z,89
2022-11-17T05:08:23.082Z,90
2022-11-17T05:09:23.095Z,90
2022-11-17T05:10:23.060Z,90
2022-11-17T05:11:23.188Z,90
2022-11-17T05:12:23.185Z,90
2022-11-17T05:13:23.061Z,89
2022-11-17T05:14:23.083Z,90
2022-11-17T05:15:23.063Z,90
2022-11-17T05:16:23.106Z,90
2022-11-17T05:17:23.061Z,90
2022-11-17T05:18:23.074Z,89
2022-11-17T05:19:23.061Z,89
2022-11-17T05:20:23.051Z,89
2022-11-17T05:21:23.089Z,89
2022-11-17T05:22:23.063Z,89
2022-11-17T05:23:23.069Z,89
2022-11-17T05:24:23.066Z,89
2022-11-17T05:25:23.072Z,89
2022-11-17T05:26:23.096Z,89
2022-11-17T05:27:23.169Z,89
2022-11-17T05:28:23.182Z,89
2022-11-17T05:29:23.071Z,90
2022-11-17T05:30:23.068Z,90
2022-11-17T05:31:23.091Z,89
2022-11-17T05:32:23.078Z,90
2022-11-17T05:33:23.090Z,90
2022-11-17T05:34:23.066Z,90
2022-11-17T05:35:23.076Z,90
2022-11-17T05:36:23.113Z,90
2022-11-17T05:37:23.069Z,90
2022-11-17T05:38:23.069Z,90
2022-11-17T05:39:23.092Z,90
2022-11-17T05:40:23.068Z,90
2022-11-17T05:41:23.096Z,90
2022-11-17T05:42:23.078Z,90
2022-11-17T05:43:23.091Z,90
2022-11-17T05:44:23.183Z,90
2022-11-17T05:45:23.072Z,90
2022-11-17T05:46:23.081Z,90
2022-11-17T05:47:23.084Z,91
2022-11-17T05:48:23.081Z,90
2022-11-17T05:49:23.066Z,90
2022-11-17T05:50:23.070Z,90
2022-11-17T05:51:23.116Z,91
2022-11-17T05:52:23.092Z,91
2022-11-17T05:53:23.081Z,91
2022-11-17T05:54:23.078Z,91
2022-11-17T05:55:23.077Z,90
2022-11-17T05:56:23.101Z,91
2022-11-17T05:57:23.073Z,90
2022-11-17T05:58:23.095Z,90
2022-11-17T05:59:27.444Z,90
2022-11-17T06:00:23.093Z,90
2022-11-17T06:01:23.154Z,90
2022-11-17T06:02:23.081Z,90
2022-11-17T06:03:23.088Z,90
2022-11-17T06:04:23.113Z,90
2022-11-17T06:05:23.082Z,90
2022-11-17T06:06:23.092Z,90
2022-11-17T06:07:23.154Z,91
2022-11-17T06:08:23.081Z,90
2022-11-17T06:09:23.081Z,91
2022-11-17T06:10:23.088Z,91
2022-11-17T06:11:23.101Z,91
2022-11-17T06:12:23.087Z,91
2022-11-17T06:13:23.079Z,90
2022-11-17T06:14:23.093Z,90
2022-11-17T06:15:23.075Z,90
2022-11-17T06:16:23.209Z,91
2022-11-17T06:17:23.321Z,91
2022-11-17T06:18:23.354Z,91
2022-11-17T06:19:23.086Z,91
2022-11-17T06:20:23.076Z,91
2022-11-17T06:21:23.098Z,91
2022-11-17T06:22:23.086Z,91
2022-11-17T06:23:23.088Z,91
2022-11-17T06:24:23.081Z,91
2022-11-17T06:25:23.089Z,91
2022-11-17T06:26:23.126Z,91
2022-11-17T06:27:23.084Z,91
2022-11-17T06:28:23.094Z,91
2022-11-17T06:29:23.089Z,91
2022-11-17T06:30:23.077Z,92
2022-11-17T06:31:23.099Z,92
2022-11-17T06:32:23.206Z,92
2022-11-17T06:33:23.093Z,92
2022-11-17T06:34:23.081Z,92
2022-11-17T06:35:23.089Z,92
2022-11-17T06:36:23.133Z,92
2022-11-17T06:37:23.745Z,92
2022-11-17T06:38:23.087Z,92
2022-11-17T06:39:23.094Z,92
2022-11-17T06:40:23.078Z,92
2022-11-17T06:41:23.119Z,92
2022-11-17T06:42:23.086Z,92
2022-11-17T06:43:23.084Z,92
2022-11-17T06:44:23.079Z,92
2022-11-17T06:45:23.099Z,92
2022-11-17T06:46:23.103Z,93
2022-11-17T06:47:23.085Z,93
2022-11-17T06:48:23.112Z,93
2022-11-17T06:49:23.088Z,93
2022-11-17T06:50:23.091Z,93
2022-11-17T06:51:23.117Z,92
2022-11-17T06:52:23.106Z,92
2022-11-17T06:53:23.105Z,93
2022-11-17T06:54:23.091Z,92
2022-11-17T06:55:23.101Z,92
2022-11-17T06:56:23.106Z,92
2022-11-17T06:57:23.101Z,92
2022-11-17T06:58:23.099Z,92
2022-11-17T06:59:23.091Z,92
2022-11-17T07:00:23.097Z,92
2022-11-17T07:01:23.162Z,92
2022-11-17T07:02:23.098Z,92
2022-11-17T07:03:23.093Z,92
2022-11-17T07:04:23.210Z,92
2022-11-17T07:05:23.093Z,92
2022-11-17T07:06:23.117Z,92
2022-11-17T07:07:23.192Z,93
2022-11-17T07:08:23.110Z,93
2022-11-17T07:09:23.109Z,93
2022-11-17T07:10:23.103Z,93
2022-11-17T07:11:23.120Z,93
2022-11-17T07:12:23.107Z,93
2022-11-17T07:13:23.099Z,94
2022-11-17T07:14:23.094Z,94
2022-11-17T07:15:23.096Z,95
2022-11-17T07:16:23.926Z,95
2022-11-17T07:17:23.101Z,94
2022-11-17T07:18:23.103Z,94
2022-11-17T07:19:23.112Z,94
2022-11-17T07:20:23.121Z,94
2022-11-17T07:21:23.117Z,94
2022-11-17T07:22:23.121Z,94
2022-11-17T07:23:23.132Z,94
2022-11-17T07:24:23.111Z,94
2022-11-17T07:25:23.106Z,94
2022-11-17T07:26:23.134Z,94
2022-11-17T07:27:23.105Z,94
2022-11-17T07:28:23.100Z,94
2022-11-17T07:29:23.099Z,94
2022-11-17T07:30:23.102Z,94
2022-11-17T07:31:23.121Z,94
2022-11-17T07:32:23.100Z,94
2022-11-17T07:33:23.117Z,94
2022-11-17T07:34:23.133Z,94
2022-11-17T07:35:23.109Z,94
2022-11-17T07:36:23.285Z,94
2022-11-17T07:37:23.119Z,94
2022-11-17T07:38:23.117Z,94
2022-11-17T07:39:23.129Z,94
2022-11-17T07:40:23.121Z,94
2022-11-17T07:41:23.151Z,94
2022-11-17T07:42:23.122Z,94
2022-11-17T07:43:23.116Z,94
2022-11-17T07:44:23.115Z,94
2022-11-17T07:45:24.189Z,93
2022-11-17T07:46:23.149Z,93
2022-11-17T07:47:23.134Z,93
2022-11-17T07:48:23.133Z,93
2022-11-17T07:49:23.132Z,92
2022-11-17T07:50:23.124Z,92
2022-11-17T07:51:23.141Z,93
2022-11-17T07:52:23.233Z,93
2022-11-17T07:53:23.119Z,92
2022-11-17T07:54:23.128Z,92
2022-11-17T07:55:23.119Z,91
2022-11-17T07:56:23.141Z,91
2022-11-17T07:57:23.126Z,92
2022-11-17T07:58:23.147Z,91
2022-11-17T07:59:23.128Z,92
2022-11-17T08:00:23.132Z,92
2022-11-17T08:01:23.256Z,92
2022-11-17T08:02:23.122Z,92
2022-11-17T08:03:23.240Z,92
2022-11-17T08:04:23.135Z,92
2022-11-17T08:05:23.126Z,92
2022-11-17T08:06:23.198Z,92
2022-11-17T08:07:23.176Z,92
2022-11-17T08:08:23.170Z,92
2022-11-17T08:09:23.127Z,91
2022-11-17T08:10:23.136Z,91
2022-11-17T08:11:23.172Z,91
2022-11-17T08:12:23.122Z,91
2022-11-17T08:13:23.123Z,91
2022-11-17T08:14:23.128Z,92
2022-11-17T08:15:23.134Z,91
2022-11-17T08:16:23.138Z,91
2022-11-17T08:17:23.128Z,91
2022-11-17T08:18:23.140Z,91
2022-11-17T08:19:23.135Z,91
2022-11-17T08:20:23.151Z,91
2022-11-17T08:21:23.160Z,91
2022-11-17T08:22:23.143Z,91
2022-11-17T08:23:23.139Z,91
2022-11-17T08:24:23.171Z,91
2022-11-17T08:25:23.165Z,90
2022-11-17T08:26:23.163Z,91
2022-11-17T08:27:23.138Z,91
2022-11-17T08:28:23.148Z,91
2022-11-17T08:29:23.130Z,91
2022-11-17T08:30:23.151Z,91
2022-11-17T08:31:23.184Z,90
2022-11-17T08:32:23.433Z,90
2022-11-17T08:33:23.151Z,90
2022-11-17T08:34:23.162Z,90
2022-11-17T08:35:23.136Z,90
2022-11-17T08:36:23.172Z,90
2022-11-17T08:37:23.141Z,90
2022-11-17T08:38:23.155Z,90
2022-11-17T08:39:23.138Z,90
2022-11-17T08:40:23.265Z,90
2022-11-17T08:41:23.178Z,90
2022-11-17T08:42:23.133Z,91
2022-11-17T08:43:23.165Z,91
2022-11-17T08:44:23.149Z,91
2022-11-17T08:45:23.147Z,90
2022-11-17T08:46:23.166Z,90
2022-11-17T08:47:23.153Z,90
2022-11-17T08:48:23.181Z,90
2022-11-17T08:49:23.196Z,90
2022-11-17T08:50:23.139Z,90
2022-11-17T08:51:23.183Z,90
2022-11-17T08:52:23.129Z,90
2022-11-17T08:53:23.141Z,90
2022-11-17T08:54:23.165Z,90
2022-11-17T08:55:23.227Z,90
2022-11-17T08:56:23.285Z,90
2022-11-17T08:57:23.263Z,90
2022-11-17T08:58:23.140Z,89
2022-11-17T08:59:23.144Z,90
2022-11-17T09:00:23.156Z,89
2022-11-17T09:01:23.196Z,90
2022-11-17T09:02:23.150Z,89
2022-11-17T09:03:23.140Z,89
2022-11-17T09:04:23.140Z,89
2022-11-17T09:05:23.168Z,89
2022-11-17T09:06:23.177Z,89
2022-11-17T09:07:23.230Z,89
2022-11-17T09:08:44.275Z,89
2022-11-17T09:09:23.180Z,89
2022-11-17T09:10:23.448Z,90
2022-11-17T09:11:23.197Z,90
2022-11-17T09:12:23.229Z,90
2022-11-17T09:13:23.201Z,90
2022-11-17T09:14:23.193Z,91
2022-11-17T09:15:23.200Z,92
2022-11-17T09:16:23.196Z,92
2022-11-17T09:17:23.209Z,92
2022-11-17T09:18:23.201Z,92
2022-11-17T09:19:23.192Z,93
2022-11-17T09:20:23.452Z,93
2022-11-17T09:21:23.215Z,93
2022-11-17T09:22:23.177Z,93
2022-11-17T09:23:23.187Z,93
2022-11-17T09:24:23.192Z,93
2022-11-17T09:25:23.216Z,94
2022-11-17T09:26:23.193Z,94
2022-11-17T09:27:23.194Z,95
2022-11-17T09:28:23.222Z,95
2022-11-17T09:29:23.196Z,94
2022-11-17T09:30:23.204Z,93
2022-11-17T09:31:23.677Z,94
2022-11-17T09:32:23.188Z,93
2022-11-17T09:33:23.188Z,93
2022-11-17T09:34:23.231Z,91
2022-11-17T09:35:23.186Z,92
2022-11-17T09:36:23.210Z,92
2022-11-17T09:37:23.211Z,93
2022-11-17T09:38:23.210Z,93
2022-11-17T09:39:23.191Z,92
2022-11-17T09:40:23.201Z,91
2022-11-17T09:41:23.199Z,92
2022-11-17T09:42:23.210Z,92
2022-11-17T09:43:23.222Z,90
2022-11-17T09:44:23.317Z,90
2022-11-17T09:45:23.208Z,90
2022-11-17T09:46:23.221Z,89
2022-11-17T09:47:23.201Z,89
2022-11-17T09:48:40.532Z,89
2022-11-17T09:49:23.192Z,89
2022-11-17T09:50:23.225Z,89
2022-11-17T09:51:23.210Z,89
2022-11-17T09:52:23.191Z,89
2022-11-17T09:53:23.196Z,88
2022-11-17T09:54:23.208Z,88
2022-11-17T09:55:23.209Z,88
2022-11-17T09:56:23.231Z,89
2022-11-17T09:57:23.197Z,89
2022-11-17T09:58:23.196Z,89
2022-11-17T09:59:23.200Z,88
2022-11-17T10:00:23.216Z,89
2022-11-17T10:01:23.219Z,89
2022-11-17T10:02:23.255Z,89
2022-11-17T10:03:23.195Z,89
2022-11-17T10:04:23.194Z,88
2022-11-17T10:05:23.265Z,88
2022-11-17T10:06:23.230Z,88
2022-11-17T10:07:23.261Z,88
2022-11-17T10:08:23.203Z,88
2022-11-17T10:09:25.830Z,88
2022-11-17T10:10:23.203Z,88
2022-11-17T10:11:23.229Z,88
2022-11-17T10:12:23.196Z,88
2022-11-17T10:13:23.193Z,87
2022-11-17T10:14:23.202Z,87
2022-11-17T10:15:23.195Z,87
2022-11-17T10:16:23.240Z,87
2022-11-17T10:17:23.198Z,88
2022-11-17T10:18:23.213Z,88
2022-11-17T10:19:23.248Z,88
2022-11-17T10:20:23.229Z,89
2022-11-17T10:21:23.233Z,88
2022-11-17T10:22:23.219Z,89
2022-11-17T10:23:23.208Z,89
2022-11-17T10:24:23.224Z,89
2022-11-17T10:25:23.223Z,88
2022-11-17T10:26:23.331Z,88
2022-11-17T10:27:23.206Z,88
2022-11-17T10:28:23.224Z,88
2022-11-17T10:29:23.200Z,88
2022-11-17T10:30:23.218Z,88
2022-11-17T10:31:23.217Z,88
2022-11-17T10:32:23.330Z,88
2022-11-17T10:33:23.213Z,88
2022-11-17T10:34:26.845Z,88
2022-11-17T10:35:23.226Z,87
2022-11-17T10:36:23.226Z,88
2022-11-17T10:37:23.217Z,88
2022-11-17T10:38:23.222Z,88
2022-11-17T10:39:23.215Z,88
2022-11-17T10:40:25.566Z,88
2022-11-17T10:41:23.234Z,88
2022-11-17T10:42:23.212Z,88
2022-11-17T10:43:23.225Z,88
2022-11-17T10:44:23.218Z,88
2022-11-17T10:45:23.205Z,88
2022-11-17T10:46:23.239Z,89
2022-11-17T10:47:23.210Z,88
2022-11-17T10:48:23.237Z,87
2022-11-17T10:49:23.214Z,87
2022-11-17T10:50:23.221Z,87
2022-11-17T10:51:23.253Z,87
2022-11-17T10:52:23.230Z,86
2022-11-17T10:53:23.216Z,87
2022-11-17T10:54:23.210Z,87
2022-11-17T10:55:23.215Z,87
2022-11-17T10:56:23.223Z,87
2022-11-17T10:57:23.227Z,87
2022-11-17T10:58:23.229Z,87
2022-11-17T10:59:23.218Z,87
2022-11-17T11:00:23.225Z,87
2022-11-17T11:01:25.925Z,87
2022-11-17T11:02:23.234Z,86
2022-11-17T11:03:23.239Z,86
2022-11-17T11:04:23.288Z,87
2022-11-17T11:05:23.248Z,88
2022-11-17T11:06:23.242Z,88
2022-11-17T11:07:23.332Z,89
2022-11-17T11:08:23.222Z,93
2022-11-17T11:09:23.259Z,91
2022-11-17T11:10:23.249Z,90
2022-11-17T11:11:23.258Z,92
2022-11-17T11:12:23.234Z,89
2022-11-17T11:13:23.235Z,89
2022-11-17T11:14:23.442Z,89
2022-11-17T11:15:23.221Z,92
2022-11-17T11:16:23.252Z,91
2022-11-17T11:17:23.233Z,90
2022-11-17T11:18:23.264Z,90
2022-11-17T11:19:23.225Z,91
2022-11-17T11:20:23.336Z,91
2022-11-17T11:21:23.253Z,91
2022-11-17T11:22:23.229Z,91
2022-11-17T11:23:23.240Z,92
2022-11-17T11:24:23.227Z,92
2022-11-17T11:25:23.231Z,89
2022-11-17T11:26:23.266Z,89
2022-11-17T11:27:23.230Z,91
2022-11-17T11:28:23.242Z,91
2022-11-17T11:29:23.246Z,90
2022-11-17T11:30:23.260Z,91
2022-11-17T11:31:23.246Z,91
2022-11-17T11:32:23.233Z,91
2022-11-17T11:33:23.242Z,92
2022-11-17T11:34:23.243Z,92
2022-11-17T11:35:23.254Z,92
2022-11-17T11:36:23.351Z,93
2022-11-17T11:37:23.231Z,93
2022-11-17T11:38:23.261Z,93
2022-11-17T11:39:23.235Z,93
2022-11-17T11:40:23.246Z,94
2022-11-17T11:41:23.247Z,94
2022-11-17T11:42:23.242Z,93
2022-11-17T11:43:23.243Z,91
2022-11-17T11:44:23.237Z,90
2022-11-17T11:45:23.238Z,91
2022-11-17T11:46:23.249Z,91
2022-11-17T11:47:23.231Z,92
2022-11-17T11:48:23.242Z,93
2022-11-17T11:49:23.235Z,93
2022-11-17T11:50:23.273Z,93
2022-11-17T11:51:23.259Z,92
2022-11-17T11:52:23.329Z,92
2022-11-17T11:53:23.245Z,91
2022-11-17T11:54:23.253Z,91
2022-11-17T11:55:23.264Z,92
2022-11-17T11:56:23.262Z,92
2022-11-17T11:57:23.261Z,93
2022-11-17T11:58:23.255Z,93
2022-11-17T11:59:23.295Z,94
2022-11-17T12:00:23.267Z,94
2022-11-17T12:01:23.304Z,94
2022-11-17T12:02:23.441Z,94
2022-11-17T12:03:23.272Z,94
2022-11-17T12:04:23.251Z,94
2022-11-17T12:05:23.248Z,95
2022-11-17T12:06:23.259Z,95
2022-11-17T12:07:23.323Z,95
2022-11-17T12:08:23.280Z,95
2022-11-17T12:09:23.254Z,95
2022-11-17T12:10:23.249Z,94
2022-11-17T12:11:23.269Z,94
2022-11-17T12:12:23.255Z,94
2022-11-17T12:13:23.264Z,95
2022-11-17T12:14:23.260Z,95
2022-11-17T12:15:23.267Z,95
2022-11-17T12:16:23.287Z,95
2022-11-17T12:17:23.486Z,95
2022-11-17T12:18:23.258Z,94
2022-11-17T12:19:23.269Z,94
2022-11-17T12:20:23.240Z,94
2022-11-17T12:21:23.278Z,94
2022-11-17T12:22:23.247Z,94
2022-11-17T12:23:23.260Z,95
2022-11-17T12:24:23.284Z,95
2022-11-17T12:25:23.262Z,95
2022-11-17T12:26:23.306Z,95
2022-11-17T12:27:23.258Z,94
2022-11-17T12:28:23.256Z,95
2022-11-17T12:29:23.259Z,94
2022-11-17T12:30:23.252Z,94
2022-11-17T12:31:23.272Z,95
2022-11-17T12:32:23.256Z,95
2022-11-17T12:33:23.252Z,94
2022-11-17T12:34:23.257Z,95
2022-11-17T12:35:23.288Z,92
2022-11-17T12:36:28.650Z,91
2022-11-17T12:37:23.268Z,93
2022-11-17T12:38:23.259Z,93
2022-11-17T12:39:23.265Z,93
2022-11-17T12:40:23.294Z,94
2022-11-17T12:41:23.285Z,94
2022-11-17T12:42:23.245Z,94
2022-11-17T12:43:23.271Z,94
2022-11-17T12:44:23.269Z,90
2022-11-17T12:45:23.277Z,90
2022-11-17T12:46:23.278Z,91
2022-11-17T12:47:23.277Z,91
2022-11-17T12:48:37.724Z,90
2022-11-17T12:49:23.348Z,91
2022-11-17T12:50:23.270Z,92
2022-11-17T12:51:23.299Z,92
2022-11-17T12:52:23.272Z,92
2022-11-17T12:53:23.295Z,93
2022-11-17T12:54:23.273Z,92
2022-11-17T12:55:23.298Z,92
2022-11-17T12:56:23.321Z,92
2022-11-17T12:57:23.284Z,92
2022-11-17T12:58:23.280Z,92
2022-11-17T12:59:23.287Z,92
2022-11-17T13:00:23.278Z,93
2022-11-17T13:01:23.370Z,92
2022-11-17T13:02:23.278Z,92
2022-11-17T13:03:23.279Z,91
2022-11-17T13:04:23.285Z,91
2022-11-17T13:05:23.297Z,91
2022-11-17T13:06:38.731Z,92
2022-11-17T13:07:23.338Z,91
2022-11-17T13:08:23.287Z,92
2022-11-17T13:09:23.287Z,92
2022-11-17T13:10:23.301Z,92
2022-11-17T13:11:23.334Z,91
2022-11-17T13:12:23.304Z,92
2022-11-17T13:13:23.273Z,93
2022-11-17T13:14:23.294Z,92
2022-11-17T13:15:23.298Z,91
2022-11-17T13:16:23.316Z,91
2022-11-17T13:17:23.274Z,91
2022-11-17T13:18:23.281Z,91
2022-11-17T13:19:23.293Z,91
2022-11-17T13:20:23.276Z,92
2022-11-17T13:21:23.306Z,92
2022-11-17T13:22:23.291Z,92
2022-11-17T13:23:23.287Z,92
2022-11-17T13:24:23.276Z,91
2022-11-17T13:25:23.302Z,92
2022-11-17T13:26:23.320Z,91
2022-11-17T13:27:23.297Z,91
2022-11-17T13:28:23.472Z,91
2022-11-17T13:29:23.301Z,90
2022-11-17T13:30:23.285Z,90
2022-11-17T13:31:23.311Z,91
2022-11-17T13:32:23.335Z,91
2022-11-17T13:33:23.284Z,91
2022-11-17T13:34:23.286Z,90
2022-11-17T13:35:23.301Z,88
2022-11-17T13:36:23.295Z,89
2022-11-17T13:37:23.285Z,90
2022-11-17T13:38:23.286Z,90
2022-11-17T13:39:27.217Z,91
2022-11-17T13:40:23.305Z,90
2022-11-17T13:41:23.303Z,89
2022-11-17T13:42:23.293Z,90
2022-11-17T13:43:23.316Z,90
2022-11-17T13:44:23.322Z,91
2022-11-17T13:45:23.293Z,91
2022-11-17T13:46:23.296Z,90
2022-11-17T13:47:23.280Z,91
2022-11-17T13:48:23.344Z,91
2022-11-17T13:49:23.303Z,91
2022-11-17T13:50:23.316Z,91
2022-11-17T13:51:23.317Z,91
2022-11-17T13:52:23.367Z,91
2022-11-17T13:53:23.305Z,92
2022-11-17T13:54:23.340Z,91
2022-11-17T13:55:23.293Z,91
2022-11-17T13:56:23.352Z,91
2022-11-17T13:57:23.304Z,91
2022-11-17T13:58:26.360Z,91
2022-11-17T13:59:23.299Z,92
2022-11-17T14:00:23.343Z,92
2022-11-17T14:01:23.335Z,92
2022-11-17T14:02:23.301Z,93
2022-11-17T14:03:23.299Z,93
2022-11-17T14:04:23.723Z,92
2022-11-17T14:05:23.331Z,92
2022-11-17T14:06:23.325Z,90
2022-11-17T14:07:23.373Z,91
2022-11-17T14:08:23.311Z,91
2022-11-17T14:09:23.311Z,91
2022-11-17T14:10:23.304Z,91
2022-11-17T14:11:23.347Z,91
2022-11-17T14:12:23.301Z,92
2022-11-17T14:13:23.312Z,92
2022-11-17T14:14:23.298Z,92
2022-11-17T14:15:23.304Z,92